createdAt,value
2023-01-09T00:00:56.135Z,2.65
2023-01-09T00:03:22.808Z,3.08
2023-01-09T00:05:49.571Z,3.28
2023-01-09T00:08:16.341Z,3.40
2023-01-09T00:10:42.922Z,3.17
2023-01-09T00:13:12.271Z,3.90
2023-01-09T00:15:40.303Z,3.95
2023-01-09T00:18:07.162Z,4.25
2023-01-09T00:20:33.842Z,5.05
2023-01-09T00:23:00.444Z,5.00
2023-01-09T00:25:27.012Z,4.20
2023-01-09T00:27:53.671Z,4.18
2023-01-09T00:30:20.425Z,4.53
2023-01-09T00:32:47.145Z,4.20
2023-01-09T00:35:17.532Z,3.75
2023-01-09T00:37:44.487Z,3.50
2023-01-09T00:40:13.625Z,3.28
2023-01-09T00:42:41.039Z,2.65
2023-01-09T00:45:11.863Z,2.92
2023-01-09T00:47:48.500Z,2.20
2023-01-09T00:50:19.391Z,2.63
2023-01-09T00:52:46.908Z,2.70
2023-01-09T00:55:15.243Z,2.38
2023-01-09T00:57:41.917Z,2.58
2023-01-09T01:00:09.523Z,2.72
2023-01-09T01:02:36.129Z,2.83
2023-01-09T01:05:21.520Z,2.67
2023-01-09T01:07:48.155Z,2.38
2023-01-09T01:10:20.640Z,2.30
2023-01-09T01:12:48.425Z,2.83
2023-01-09T01:15:15.334Z,2.28
2023-01-09T01:17:42.432Z,2.33
2023-01-09T01:20:16.405Z,2.38
2023-01-09T01:22:43.022Z,2.58
2023-01-09T01:25:11.906Z,2.00
2023-01-09T01:27:39.061Z,2.22
2023-01-09T01:30:07.922Z,2.40
2023-01-09T01:32:34.761Z,2.40
2023-01-09T01:35:01.411Z,2.33
2023-01-09T01:37:27.980Z,2.47
2023-01-09T01:39:54.886Z,2.40
2023-01-09T01:42:21.913Z,2.65
2023-01-09T01:45:10.499Z,2.45
2023-01-09T01:48:12.995Z,2.20
2023-01-09T01:51:10.311Z,2.00
2023-01-09T01:53:41.449Z,2.38
2023-01-09T01:56:20.442Z,2.38
2023-01-09T01:59:16.171Z,2.78
2023-01-09T02:01:45.910Z,2.17
2023-01-09T02:04:12.780Z,2.72
2023-01-09T02:06:39.968Z,2.55
2023-01-09T02:09:06.988Z,2.40
2023-01-09T02:11:34.253Z,3.10
2023-01-09T02:14:02.046Z,2.67
2023-01-09T02:16:53.200Z,2.90
2023-01-09T02:19:57.849Z,3.33
2023-01-09T02:22:40.835Z,2.35
2023-01-09T02:25:28.978Z,3.05
2023-01-09T02:28:20.335Z,2.70
2023-01-09T02:30:50.127Z,3.05
2023-01-09T02:33:38.036Z,3.08
2023-01-09T02:36:11.264Z,3.03
2023-01-09T02:38:59.134Z,3.15
2023-01-09T02:41:48.617Z,2.65
2023-01-09T02:44:26.884Z,2.80
2023-01-09T02:47:08.574Z,3.13
2023-01-09T02:49:38.491Z,2.65
2023-01-09T02:52:32.691Z,2.50
2023-01-09T02:55:26.907Z,2.10
2023-01-09T02:58:15.309Z,2.97
2023-01-09T03:01:22.130Z,2.60
2023-01-09T03:04:21.168Z,2.97
2023-01-09T03:07:19.365Z,2.70
2023-01-09T03:09:50.396Z,3.15
2023-01-09T03:12:21.591Z,2.83
2023-01-09T03:14:51.617Z,2.78
2023-01-09T03:17:32.057Z,2.45
2023-01-09T03:20:03.161Z,2.42
2023-01-09T03:22:29.783Z,2.20
2023-01-09T03:24:56.427Z,1.50
2023-01-09T03:27:23.153Z,0.80
2023-01-09T03:29:51.183Z,1.63
2023-01-09T03:32:17.756Z,0.80
2023-01-09T03:34:44.337Z,0.85
2023-01-09T03:37:11.055Z,0.88
2023-01-09T03:39:37.734Z,1.10
2023-01-09T03:42:04.575Z,0.50
2023-01-09T03:44:31.146Z,0.75
2023-01-09T03:46:57.715Z,0.63
2023-01-09T03:49:24.377Z,0.73
2023-01-09T03:51:50.964Z,0.70
2023-01-09T03:54:17.552Z,0.82
2023-01-09T03:56:44.190Z,0.65
2023-01-09T03:59:10.755Z,0.55
2023-01-09T04:01:37.443Z,0.80
2023-01-09T04:04:04.523Z,0.75
2023-01-09T04:06:31.175Z,0.60
2023-01-09T04:08:57.833Z,0.60
2023-01-09T04:11:24.465Z,0.40
2023-01-09T04:13:51.016Z,0.43
2023-01-09T04:16:17.677Z,0.30
2023-01-09T04:18:44.266Z,0.30
2023-01-09T04:21:10.843Z,0.30
2023-01-09T04:23:37.448Z,0.10
2023-01-09T04:26:04.177Z,0.10
2023-01-09T04:28:31.154Z,0.15
2023-01-09T04:30:57.755Z,0.17
2023-01-09T04:33:24.321Z,0.10
2023-01-09T04:35:50.908Z,0.10
2023-01-09T04:38:18.240Z,0.10
2023-01-09T04:40:47.106Z,0.30
2023-01-09T04:43:13.825Z,0.10
2023-01-09T04:45:40.596Z,0.10
2023-01-09T04:48:07.181Z,0.28
2023-01-09T04:50:33.797Z,0.13
2023-01-09T04:53:00.355Z,0.10
2023-01-09T04:55:26.981Z,0.10
2023-01-09T04:57:53.538Z,0.15
2023-01-09T05:00:20.267Z,0.20
2023-01-09T05:02:46.880Z,0.20
2023-01-09T05:05:13.507Z,0.10
2023-01-09T05:07:40.563Z,0.30
2023-01-09T05:10:09.098Z,0.20
2023-01-09T05:12:36.650Z,0.20
2023-01-09T05:15:04.690Z,0.20
2023-01-09T05:17:31.273Z,0.10
2023-01-09T05:19:57.818Z,0.13
2023-01-09T05:22:24.400Z,0.10
2023-01-09T05:24:50.957Z,0.13
2023-01-09T05:27:17.536Z,0.10
2023-01-09T05:29:44.123Z,0.17
2023-01-09T05:32:10.729Z,0.10
2023-01-09T05:34:37.343Z,0.10
2023-01-09T05:37:03.932Z,0.10
2023-01-09T05:39:30.470Z,0.10
2023-01-09T05:41:57.076Z,0.10
2023-01-09T05:44:23.698Z,0.10
2023-01-09T05:46:50.322Z,0.20
2023-01-09T05:49:17.037Z,0.10
2023-01-09T05:51:43.624Z,0.10
2023-01-09T05:54:10.444Z,0.10
2023-01-09T05:56:37.059Z,0.10
2023-01-09T05:59:03.666Z,0.10
2023-01-09T06:01:30.384Z,0.13
2023-01-09T06:03:57.082Z,0.20
2023-01-09T06:06:24.229Z,0.10
2023-01-09T06:08:50.822Z,0.20
2023-01-09T06:11:17.402Z,0.20
2023-01-09T06:13:43.956Z,0.20
2023-01-09T06:16:10.591Z,0.20
2023-01-09T06:18:37.261Z,0.20
2023-01-09T06:21:04.022Z,0.20
2023-01-09T06:23:30.612Z,0.10
2023-01-09T06:25:57.191Z,0.20
2023-01-09T06:28:23.778Z,0.20
2023-01-09T06:30:52.068Z,0.20
2023-01-09T06:33:19.516Z,0.10
2023-01-09T06:35:46.168Z,0.13
2023-01-09T06:38:12.774Z,0.20
2023-01-09T06:40:39.411Z,0.10
2023-01-09T06:43:06.416Z,0.15
2023-01-09T06:45:33.280Z,0.10
2023-01-09T06:47:59.865Z,0.10
2023-01-09T06:50:26.411Z,0.10
2023-01-09T06:52:53.014Z,0.10
2023-01-09T06:55:19.673Z,0.10
2023-01-09T06:57:46.269Z,0.10
2023-01-09T07:00:13.237Z,0.10
2023-01-09T07:02:39.823Z,0.20
2023-01-09T07:05:08.542Z,0.20
2023-01-09T07:07:35.141Z,0.20
2023-01-09T07:10:01.794Z,0.20
2023-01-09T07:12:28.360Z,0.20
2023-01-09T07:14:57.473Z,0.20
2023-01-09T07:17:24.427Z,0.20
2023-01-09T07:19:51.102Z,0.10
2023-01-09T07:22:19.065Z,0.10
2023-01-09T07:24:45.791Z,0.10
2023-01-09T07:27:12.345Z,0.10
2023-01-09T07:29:38.917Z,0.20
2023-01-09T07:32:05.582Z,0.10
2023-01-09T07:34:32.216Z,0.30
2023-01-09T07:36:58.850Z,0.10
2023-01-09T07:39:25.489Z,0.10
2023-01-09T07:41:52.058Z,0.10
2023-01-09T07:44:18.900Z,0.10
2023-01-09T07:46:45.469Z,0.10
2023-01-09T07:49:12.091Z,0.20
2023-01-09T07:51:42.923Z,0.10
2023-01-09T07:54:11.347Z,0.20
2023-01-09T07:56:38.846Z,0.20
2023-01-09T07:59:05.478Z,0.10
2023-01-09T08:01:32.186Z,0.20
2023-01-09T08:03:59.240Z,0.17
2023-01-09T08:06:25.839Z,0.20
2023-01-09T08:08:52.418Z,0.15
2023-01-09T08:11:19.049Z,0.20
2023-01-09T08:13:45.623Z,0.32
2023-01-09T08:16:12.272Z,0.10
2023-01-09T08:18:38.896Z,0.10
2023-01-09T08:21:05.594Z,0.20
2023-01-09T08:23:32.251Z,0.10
2023-01-09T08:25:58.870Z,0.10
2023-01-09T08:28:25.517Z,0.20
2023-01-09T08:30:52.117Z,0.35
2023-01-09T08:33:18.673Z,0.20
2023-01-09T08:35:45.804Z,0.20
2023-01-09T08:38:12.494Z,0.20
2023-01-09T08:40:39.260Z,0.32
2023-01-09T08:43:24.988Z,0.40
2023-01-09T08:46:10.201Z,0.28
2023-01-09T08:48:36.808Z,0.30
2023-01-09T08:51:03.528Z,0.20
2023-01-09T08:53:31.459Z,0.50
2023-01-09T08:55:58.044Z,0.20
2023-01-09T08:58:24.629Z,0.20
2023-01-09T09:00:51.228Z,0.20
2023-01-09T09:03:17.858Z,0.38
2023-01-09T09:05:46.700Z,0.30
2023-01-09T09:08:13.927Z,0.10
2023-01-09T09:10:40.506Z,0.20
2023-01-09T09:13:07.144Z,0.22
2023-01-09T09:15:34.456Z,0.10
2023-01-09T09:18:03.715Z,0.20
2023-01-09T09:20:33.607Z,0.20
2023-01-09T09:23:00.314Z,0.10
2023-01-09T09:25:28.074Z,0.30
2023-01-09T09:27:57.514Z,0.20
2023-01-09T09:30:24.541Z,0.32
2023-01-09T09:32:51.230Z,0.20
2023-01-09T09:35:18.230Z,0.35
2023-01-09T09:37:56.720Z,0.20
2023-01-09T09:41:28.948Z,0.30
2023-01-09T09:44:53.489Z,0.40
2023-01-09T09:47:26.579Z,0.20
2023-01-09T09:50:25.245Z,0.20
2023-01-09T09:52:57.420Z,0.20
2023-01-09T09:55:33.061Z,0.20
2023-01-09T09:58:02.608Z,0.10
2023-01-09T10:00:30.131Z,0.20
2023-01-09T10:03:03.534Z,0.13
2023-01-09T10:05:43.811Z,0.10
2023-01-09T10:08:52.046Z,0.28
2023-01-09T10:11:35.212Z,0.30
2023-01-09T10:14:08.232Z,0.30
2023-01-09T10:17:06.335Z,0.20
2023-01-09T10:19:41.748Z,0.20
2023-01-09T10:22:33.315Z,0.25
2023-01-09T10:25:35.012Z,0.13
2023-01-09T10:28:10.902Z,0.30
2023-01-09T10:30:49.438Z,0.20
2023-01-09T10:33:40.748Z,0.25
2023-01-09T10:36:25.413Z,0.32
2023-01-09T10:38:56.223Z,0.15
2023-01-09T10:41:28.111Z,0.30
2023-01-09T10:44:11.448Z,0.10
2023-01-09T10:46:55.455Z,0.45
2023-01-09T10:49:24.148Z,0.30
2023-01-09T10:51:58.201Z,0.43
2023-01-09T10:54:24.844Z,0.32
2023-01-09T10:56:54.827Z,0.20
2023-01-09T10:59:22.356Z,0.30
2023-01-09T11:01:49.231Z,0.10
2023-01-09T11:04:23.428Z,0.20
2023-01-09T11:09:58.498Z,0.13
2023-01-09T11:12:30.905Z,0.25
2023-01-09T11:15:19.414Z,0.20
2023-01-09T11:17:51.660Z,0.30
2023-01-09T11:20:27.119Z,0.20
2023-01-09T11:22:58.889Z,0.20
2023-01-09T11:28:02.311Z,0.20
2023-01-09T11:30:50.937Z,0.15
2023-01-09T11:33:26.489Z,0.20
2023-01-09T11:36:10.797Z,0.30
2023-01-09T11:38:56.185Z,0.32
2023-01-09T11:41:27.213Z,0.10
2023-01-09T11:43:57.085Z,0.45
2023-01-09T11:46:33.059Z,0.20
2023-01-09T11:49:01.775Z,0.30
2023-01-09T11:51:31.522Z,0.20
2023-01-09T11:54:13.252Z,0.20
2023-01-09T11:56:40.606Z,0.30
2023-01-09T11:59:17.260Z,0.30
2023-01-09T12:02:06.708Z,0.30
2023-01-09T12:04:55.581Z,0.22
2023-01-09T12:07:22.111Z,0.40
2023-01-09T12:10:10.088Z,0.30
2023-01-09T12:12:57.534Z,0.20
2023-01-09T12:15:32.861Z,0.20
2023-01-09T12:18:27.118Z,0.30
2023-01-09T12:21:20.134Z,0.20
2023-01-09T12:24:36.015Z,0.22
2023-01-09T12:27:17.682Z,0.13
2023-01-09T12:29:59.242Z,0.20
2023-01-09T12:33:08.919Z,0.20
2023-01-09T12:35:53.734Z,0.20
2023-01-09T12:38:29.423Z,0.35
2023-01-09T12:41:45.870Z,0.40
2023-01-09T12:44:41.486Z,0.10
2023-01-09T12:47:26.367Z,0.20
2023-01-09T12:50:14.870Z,0.30
2023-01-09T12:52:53.399Z,0.30
2023-01-09T12:55:26.298Z,0.30
2023-01-09T12:57:59.027Z,0.10
2023-01-09T13:00:40.554Z,0.35
2023-01-09T13:03:32.484Z,0.20
2023-01-09T13:06:01.360Z,0.28
2023-01-09T13:09:20.764Z,0.17
2023-01-09T13:11:55.562Z,0.20
2023-01-09T13:14:44.164Z,0.17
2023-01-09T13:17:35.017Z,0.20
2023-01-09T13:20:01.636Z,0.30
2023-01-09T13:22:29.484Z,0.10
2023-01-09T13:25:32.444Z,0.20
2023-01-09T13:28:05.229Z,0.20
2023-01-09T13:30:59.761Z,0.20
2023-01-09T13:33:33.542Z,0.35
2023-01-09T13:36:03.357Z,0.45
2023-01-09T13:38:32.878Z,0.20
2023-01-09T13:41:36.605Z,0.40
2023-01-09T13:44:19.796Z,0.20
2023-01-09T13:46:53.011Z,0.30
2023-01-09T13:49:32.633Z,0.30
2023-01-09T13:52:19.939Z,0.35
2023-01-09T13:54:55.601Z,0.17
2023-01-09T13:57:30.042Z,0.20
2023-01-09T14:00:19.292Z,0.10
2023-01-09T14:02:46.747Z,0.10
2023-01-09T14:05:37.084Z,0.10
2023-01-09T14:08:09.688Z,0.10
2023-01-09T14:10:49.276Z,0.10
2023-01-09T14:13:25.232Z,0.30
2023-01-09T14:16:01.400Z,0.22
2023-01-09T14:18:31.333Z,0.30
2023-01-09T14:21:03.945Z,0.30
2023-01-09T14:23:51.132Z,0.20
2023-01-09T14:26:22.201Z,0.25
2023-01-09T14:28:49.258Z,0.20
2023-01-09T14:31:32.755Z,0.30
2023-01-09T14:34:37.259Z,0.30
2023-01-09T14:37:04.568Z,0.20
2023-01-09T14:39:32.694Z,0.17
2023-01-09T14:42:07.947Z,0.20
2023-01-09T14:45:12.051Z,0.20
2023-01-09T14:47:49.130Z,0.20
2023-01-09T14:50:30.964Z,0.20
2023-01-09T14:55:53.197Z,0.10
2023-01-09T14:58:27.352Z,0.20
2023-01-09T15:01:16.474Z,0.10
2023-01-09T15:03:45.294Z,0.20
2023-01-09T15:06:24.147Z,0.10
2023-01-09T15:08:57.060Z,0.10
2023-01-09T15:11:24.382Z,0.15
2023-01-09T15:13:53.561Z,0.30
2023-01-09T15:16:23.044Z,0.13
2023-01-09T15:18:53.485Z,0.10
2023-01-09T15:21:26.056Z,0.15
2023-01-09T15:23:52.893Z,0.20
2023-01-09T15:26:28.608Z,0.10
2023-01-09T15:29:10.140Z,0.25
2023-01-09T15:31:39.981Z,0.60
2023-01-09T15:34:07.050Z,0.35
2023-01-09T15:36:37.606Z,0.30
2023-01-09T15:39:07.097Z,0.25
2023-01-09T15:41:52.294Z,0.30
2023-01-09T15:44:26.374Z,0.17
2023-01-09T15:47:00.820Z,0.30
2023-01-09T15:49:27.694Z,0.30
2023-01-09T15:51:54.715Z,0.20
2023-01-09T15:54:29.229Z,0.30
2023-01-09T15:57:24.462Z,0.20
2023-01-09T15:59:52.154Z,0.20
2023-01-09T16:02:38.701Z,0.30
2023-01-09T16:05:24.005Z,0.20
2023-01-09T16:07:51.839Z,0.17
2023-01-09T16:10:30.382Z,0.20
2023-01-09T16:12:58.688Z,0.35
2023-01-09T16:15:33.168Z,0.20
2023-01-09T16:18:17.990Z,0.93
2023-01-09T16:20:45.498Z,0.40
2023-01-09T16:23:31.202Z,0.50
2023-01-09T16:26:15.342Z,0.30
2023-01-09T16:28:42.885Z,0.30
2023-01-09T16:31:27.280Z,0.30
2023-01-09T16:34:06.316Z,0.30
2023-01-09T16:36:35.306Z,0.30
2023-01-09T16:39:03.092Z,0.38
2023-01-09T16:41:48.793Z,0.80
2023-01-09T16:44:15.581Z,0.22
2023-01-09T16:46:44.436Z,0.43
2023-01-09T16:49:18.570Z,0.50
2023-01-09T16:51:45.813Z,0.63
2023-01-09T16:54:12.485Z,1.20
2023-01-09T16:56:40.897Z,0.65
2023-01-09T16:59:14.132Z,0.30
2023-01-09T17:01:41.621Z,0.35
2023-01-09T17:04:13.145Z,0.50
2023-01-09T17:06:40.993Z,0.20
2023-01-09T17:09:17.382Z,0.25
2023-01-09T17:11:44.535Z,0.68
2023-01-09T17:14:14.733Z,0.20
2023-01-09T17:16:45.749Z,0.35
2023-01-09T17:19:18.810Z,0.45
2023-01-09T17:21:46.107Z,0.35
2023-01-09T17:24:31.178Z,0.45
2023-01-09T17:27:17.461Z,0.25
2023-01-09T17:29:44.670Z,0.30
2023-01-09T17:32:16.191Z,0.38
2023-01-09T17:34:43.180Z,0.40
2023-01-09T17:37:17.653Z,0.57
2023-01-09T17:39:45.485Z,0.40
2023-01-09T17:42:12.419Z,0.30
2023-01-09T17:44:39.050Z,0.30
2023-01-09T17:47:07.016Z,0.30
2023-01-09T17:49:33.681Z,0.30
2023-01-09T17:52:00.253Z,0.40
2023-01-09T17:54:26.849Z,0.20
2023-01-09T17:56:54.216Z,0.50
2023-01-09T17:59:20.916Z,0.40
2023-01-09T18:01:48.415Z,0.35
2023-01-09T18:04:15.144Z,0.20
2023-01-09T18:06:41.875Z,0.38
2023-01-09T18:09:14.192Z,0.25
2023-01-09T18:11:41.293Z,0.25
2023-01-09T18:14:08.816Z,0.30
2023-01-09T18:16:35.724Z,0.50
2023-01-09T18:19:02.775Z,0.90
2023-01-09T18:21:30.272Z,0.40
2023-01-09T18:23:58.034Z,0.20
2023-01-09T18:26:24.757Z,0.47
2023-01-09T18:28:57.158Z,0.30
2023-01-09T18:31:25.994Z,0.40
2023-01-09T18:33:54.613Z,0.40
2023-01-09T18:36:23.992Z,0.45
2023-01-09T18:38:52.220Z,0.30
2023-01-09T18:41:19.698Z,0.50
2023-01-09T18:43:54.948Z,0.70
2023-01-09T18:46:24.554Z,0.50
2023-01-09T18:49:02.406Z,0.38
2023-01-09T18:51:29.411Z,0.32
2023-01-09T18:53:56.561Z,0.38
2023-01-09T18:56:24.720Z,0.40
2023-01-09T18:58:56.487Z,0.40
2023-01-09T19:03:50.335Z,0.20
2023-01-09T19:06:16.948Z,0.57
2023-01-09T19:08:48.413Z,0.43
2023-01-09T19:11:24.340Z,0.60
2023-01-09T19:13:51.087Z,0.30
2023-01-09T19:16:18.129Z,0.45
2023-01-09T19:18:45.016Z,0.47
2023-01-09T19:21:15.065Z,0.30
2023-01-09T19:23:43.410Z,0.63
2023-01-09T19:26:17.587Z,0.40
2023-01-09T19:28:47.098Z,0.40
2023-01-09T19:31:14.871Z,0.47
2023-01-09T19:33:41.905Z,0.40
2023-01-09T19:36:09.335Z,0.50
2023-01-09T19:38:36.000Z,0.45
2023-01-09T19:41:09.095Z,0.50
2023-01-09T19:43:36.619Z,0.47
2023-01-09T19:46:07.409Z,0.25
2023-01-09T19:48:34.031Z,0.30
2023-01-09T19:51:05.728Z,0.57
2023-01-09T19:53:34.183Z,0.90
2023-01-09T19:56:18.365Z,0.40
2023-01-09T19:58:50.687Z,0.63
2023-01-09T20:01:19.780Z,0.40
2023-01-09T20:03:48.575Z,0.50
2023-01-09T20:06:18.917Z,0.50
2023-01-09T20:08:50.669Z,0.50
2023-01-09T20:11:18.726Z,0.40
2023-01-09T20:13:45.405Z,0.35
2023-01-09T20:16:21.935Z,0.40
2023-01-09T20:18:49.214Z,0.50
2023-01-09T20:23:54.973Z,0.38
2023-01-09T20:26:22.766Z,0.30
2023-01-09T20:28:49.434Z,0.30
2023-01-09T20:31:18.020Z,0.38
2023-01-09T20:33:45.792Z,0.55
2023-01-09T20:36:12.462Z,0.60
2023-01-09T20:38:40.687Z,0.70
2023-01-09T20:41:22.430Z,0.60
2023-01-09T20:43:57.638Z,0.50
2023-01-09T20:46:27.104Z,0.50
2023-01-09T20:48:58.996Z,0.40
2023-01-09T20:51:25.860Z,1.17
2023-01-09T20:53:55.769Z,0.95
2023-01-09T20:56:31.836Z,0.80
2023-01-09T20:59:00.197Z,0.80
2023-01-09T21:01:28.020Z,0.73
2023-01-09T21:03:56.418Z,0.82
2023-01-09T21:06:26.078Z,0.63
2023-01-09T21:08:53.127Z,0.73
2023-01-09T21:11:21.654Z,0.32
2023-01-09T21:13:48.924Z,0.40
2023-01-09T21:16:21.615Z,0.40
2023-01-09T21:18:49.081Z,0.60
2023-01-09T21:21:27.256Z,0.60
2023-01-09T21:23:56.584Z,0.73
2023-01-09T21:26:27.404Z,0.88
2023-01-09T21:28:55.373Z,0.77
2023-01-09T21:31:33.441Z,0.40
2023-01-09T21:34:07.974Z,0.60
2023-01-09T21:36:35.407Z,0.60
2023-01-09T21:39:02.902Z,0.50
2023-01-09T21:41:48.127Z,0.60
2023-01-09T21:44:33.351Z,0.50
2023-01-09T21:47:01.554Z,0.38
2023-01-09T21:49:31.366Z,0.40
2023-01-09T21:51:58.166Z,0.50
2023-01-09T21:54:25.306Z,0.40
2023-01-09T21:56:52.730Z,0.30
2023-01-09T21:59:19.810Z,0.40
2023-01-09T22:01:48.588Z,0.40
2023-01-09T22:04:17.694Z,0.30
2023-01-09T22:06:44.400Z,0.32
2023-01-09T22:09:11.498Z,0.40
2023-01-09T22:11:40.316Z,0.50
2023-01-09T22:14:07.402Z,0.57
2023-01-09T22:16:34.108Z,1.40
2023-01-09T22:19:00.690Z,4.18
2023-01-09T22:21:27.285Z,0.98
2023-01-09T22:23:54.061Z,0.68
2023-01-09T22:26:21.424Z,0.50
2023-01-09T22:28:48.926Z,0.60
2023-01-09T22:31:18.408Z,0.55
2023-01-09T22:33:50.417Z,0.82
2023-01-09T22:36:17.569Z,0.82
2023-01-09T22:38:44.142Z,0.60
2023-01-09T22:41:11.188Z,1.83
2023-01-09T22:43:37.868Z,1.92
2023-01-09T22:46:11.483Z,2.15
2023-01-09T22:48:39.284Z,1.40
2023-01-09T22:51:15.245Z,2.13
2023-01-09T22:53:42.577Z,0.82
2023-01-09T22:56:13.659Z,2.00
2023-01-09T22:58:40.753Z,3.55
2023-01-09T23:01:11.074Z,2.13
2023-01-09T23:03:38.519Z,1.77
2023-01-09T23:06:08.050Z,1.17
2023-01-09T23:08:34.999Z,1.92
2023-01-09T23:11:03.144Z,1.20
2023-01-09T23:13:29.771Z,0.77
2023-01-09T23:15:56.437Z,1.50
2023-01-09T23:18:23.415Z,0.80
2023-01-09T23:20:59.664Z,0.50
2023-01-09T23:23:27.790Z,0.90
2023-01-09T23:25:59.560Z,0.60
2023-01-09T23:30:53.850Z,0.98
2023-01-09T23:33:21.332Z,0.80
2023-01-09T23:35:48.598Z,0.40
2023-01-09T23:38:15.431Z,0.70
2023-01-09T23:40:42.330Z,0.70
2023-01-09T23:43:13.843Z,0.52
2023-01-09T23:45:45.466Z,0.60
2023-01-09T23:48:13.951Z,0.70
2023-01-09T23:50:51.890Z,0.55
2023-01-09T23:53:19.862Z,0.30
2023-01-09T23:55:46.455Z,0.40
2023-01-09T23:58:15.893Z,0.50
